createdAt,value
2023-02-22T00:03:59.595Z,10.00
2023-02-22T00:08:11.944Z,10.00
2023-02-22T00:12:23.192Z,10.10
2023-02-22T00:16:35.010Z,10.10
2023-02-22T00:20:46.074Z,10.10
2023-02-22T00:25:00.656Z,10.10
2023-02-22T00:29:11.283Z,10.10
2023-02-22T00:33:21.374Z,10.10
2023-02-22T00:37:32.094Z,10.10
2023-02-22T00:41:43.655Z,10.10
2023-02-22T00:45:54.449Z,10.10
2023-02-22T00:50:04.574Z,10.10
2023-02-22T00:54:14.769Z,10.10
2023-02-22T00:58:27.124Z,10.20
2023-02-22T01:02:39.025Z,10.20
2023-02-22T01:06:50.310Z,10.30
2023-02-22T01:11:02.209Z,10.30
2023-02-22T01:15:17.009Z,10.20
2023-02-22T01:19:29.094Z,10.20
2023-02-22T01:23:39.796Z,10.20
2023-02-22T01:27:51.982Z,10.20
2023-02-22T01:32:04.739Z,10.20
2023-02-22T01:36:15.022Z,10.20
2023-02-22T01:40:28.697Z,10.20
2023-02-22T01:44:41.978Z,10.20
2023-02-22T01:48:57.373Z,10.20
2023-02-22T01:53:09.016Z,10.10
2023-02-22T01:57:22.953Z,10.10
2023-02-22T02:01:33.029Z,10.10
2023-02-22T02:05:47.290Z,10.10
2023-02-22T02:10:00.425Z,10.10
2023-02-22T02:14:11.139Z,10.10
2023-02-22T02:18:21.231Z,10.00
2023-02-22T02:22:47.890Z,10.10
2023-02-22T02:27:16.413Z,10.00
2023-02-22T02:31:55.413Z,10.10
2023-02-22T02:36:10.670Z,10.00
2023-02-22T02:40:25.458Z,10.00
2023-02-22T02:44:39.432Z,9.90
2023-02-22T02:48:57.029Z,10.00
2023-02-22T02:53:09.954Z,10.00
2023-02-22T02:57:19.435Z,10.00
2023-02-22T03:01:45.033Z,9.90
2023-02-22T03:06:15.054Z,10.00
2023-02-22T03:10:43.432Z,10.00
2023-02-22T03:15:01.796Z,9.90
2023-02-22T03:19:15.281Z,9.80
2023-02-22T03:23:30.134Z,9.80
2023-02-22T03:27:45.037Z,9.80
2023-02-22T03:32:01.941Z,9.80
2023-02-22T03:36:16.837Z,9.90
2023-02-22T03:40:32.940Z,9.90
2023-02-22T03:44:44.915Z,9.90
2023-02-22T03:49:00.354Z,9.90
2023-02-22T03:53:09.602Z,9.90
2023-02-22T03:57:27.378Z,9.90
2023-02-22T04:01:36.696Z,9.80
2023-02-22T04:05:45.996Z,9.80
2023-02-22T04:09:55.193Z,9.80
2023-02-22T04:14:06.214Z,9.80
2023-02-22T04:18:15.674Z,9.90
2023-02-22T04:22:24.732Z,9.90
2023-02-22T04:26:33.796Z,9.90
2023-02-22T04:30:46.237Z,9.90
2023-02-22T04:34:55.478Z,9.90
2023-02-22T04:39:05.436Z,9.90
2023-02-22T04:43:14.632Z,9.90
2023-02-22T04:47:25.184Z,9.90
2023-02-22T04:51:36.123Z,9.90
2023-02-22T04:55:45.235Z,10.00
2023-02-22T04:59:54.359Z,10.00
2023-02-22T05:04:06.074Z,10.00
2023-02-22T05:08:15.382Z,10.00
2023-02-22T05:12:24.584Z,10.00
2023-02-22T05:16:33.872Z,10.00
2023-02-22T05:20:44.612Z,10.00
2023-02-22T05:24:54.235Z,9.90
2023-02-22T05:29:03.295Z,9.90
2023-02-22T05:33:13.336Z,9.90
2023-02-22T05:37:23.954Z,10.00
2023-02-22T05:41:33.257Z,10.00
2023-02-22T05:45:42.376Z,10.00
2023-02-22T05:49:51.486Z,10.10
2023-02-22T05:54:02.522Z,10.10
2023-02-22T05:58:11.707Z,10.10
2023-02-22T06:02:20.833Z,10.20
2023-02-22T06:06:29.975Z,10.30
2023-02-22T06:10:40.615Z,10.30
2023-02-22T06:14:49.712Z,10.30
2023-02-22T06:19:00.108Z,10.30
2023-02-22T06:23:09.268Z,10.30
2023-02-22T06:27:19.863Z,10.30
2023-02-22T06:31:29.024Z,10.30
2023-02-22T06:35:38.151Z,10.30
2023-02-22T06:39:47.302Z,10.30
2023-02-22T06:43:58.071Z,10.30
2023-02-22T06:48:07.314Z,10.30
2023-02-22T06:52:16.410Z,10.30
2023-02-22T06:56:25.435Z,10.30
2023-02-22T07:00:36.442Z,10.30
2023-02-22T07:04:47.429Z,10.40
2023-02-22T07:08:56.695Z,10.40
2023-02-22T07:13:08.115Z,10.50
2023-02-22T07:17:18.736Z,10.50
2023-02-22T07:21:27.850Z,10.50
2023-02-22T07:25:37.260Z,10.50
2023-02-22T07:29:47.111Z,10.50
2023-02-22T07:33:57.659Z,10.30
2023-02-22T07:38:08.367Z,10.20
2023-02-22T07:42:17.595Z,10.00
2023-02-22T07:46:26.949Z,10.00
2023-02-22T07:50:38.194Z,10.00
2023-02-22T07:54:48.775Z,10.00
2023-02-22T07:58:57.981Z,9.90
2023-02-22T08:03:09.241Z,9.80
2023-02-22T08:07:19.980Z,9.80
2023-02-22T08:11:29.774Z,9.80
2023-02-22T08:15:40.933Z,9.90
2023-02-22T08:19:50.095Z,9.90
2023-02-22T08:24:00.894Z,9.90
2023-02-22T08:28:12.218Z,9.90
2023-02-22T08:32:22.227Z,9.80
2023-02-22T08:36:33.325Z,9.80
2023-02-22T08:40:44.077Z,9.80
2023-02-22T08:44:53.198Z,9.80
2023-02-22T08:49:03.438Z,9.80
2023-02-22T08:53:14.896Z,9.80
2023-02-22T08:57:26.112Z,9.80
2023-02-22T09:01:35.665Z,9.80
2023-02-22T09:05:46.018Z,9.80
2023-02-22T09:09:55.259Z,9.80
2023-02-22T09:14:06.172Z,9.80
2023-02-22T09:18:18.543Z,9.80
2023-02-22T09:22:29.829Z,9.90
2023-02-22T09:26:40.713Z,10.00
2023-02-22T09:30:51.451Z,10.10
2023-02-22T09:35:00.558Z,10.10
2023-02-22T09:39:11.631Z,10.30
2023-02-22T09:43:32.781Z,10.40
2023-02-22T09:47:47.348Z,10.40
2023-02-22T09:52:02.429Z,10.50
2023-02-22T09:56:17.941Z,10.70
2023-02-22T10:00:34.036Z,10.80
2023-02-22T10:04:49.635Z,10.90
2023-02-22T10:09:08.152Z,10.90
2023-02-22T10:13:27.579Z,10.90
2023-02-22T10:17:42.336Z,10.90
2023-02-22T10:22:07.203Z,10.80
2023-02-22T10:26:19.004Z,10.90
2023-02-22T10:30:34.408Z,11.00
2023-02-22T10:34:48.817Z,11.10
2023-02-22T10:39:02.136Z,11.30
2023-02-22T10:43:12.738Z,11.50
2023-02-22T10:47:23.755Z,11.60
2023-02-22T10:51:33.295Z,11.70
2023-02-22T10:56:08.922Z,11.80
2023-02-22T11:00:21.385Z,11.80
2023-02-22T11:04:45.586Z,11.90
2023-02-22T11:09:08.817Z,11.80
2023-02-22T11:13:27.679Z,12.00
2023-02-22T11:17:37.236Z,12.00
2023-02-22T11:21:47.077Z,12.00
2023-02-22T11:26:04.977Z,11.70
2023-02-22T11:30:31.068Z,11.20
2023-02-22T11:34:43.337Z,10.90
2023-02-22T11:39:01.071Z,10.60
2023-02-22T11:43:16.411Z,10.70
2023-02-22T11:47:27.251Z,10.90
2023-02-22T11:51:46.693Z,11.20
2023-02-22T11:56:17.327Z,11.50
2023-02-22T12:00:33.930Z,11.50
2023-02-22T12:05:08.557Z,11.70
2023-02-22T12:09:24.508Z,11.60
2023-02-22T12:14:12.510Z,11.80
2023-02-22T12:18:29.730Z,11.70
2023-02-22T12:22:55.370Z,11.80
2023-02-22T12:27:11.191Z,11.80
2023-02-22T12:31:24.552Z,11.70
2023-02-22T12:35:36.847Z,11.00
2023-02-22T12:40:00.665Z,10.60
2023-02-22T12:44:20.630Z,10.50
2023-02-22T12:48:39.514Z,10.30
2023-02-22T12:52:53.864Z,10.40
2023-02-22T12:57:13.817Z,10.60
2023-02-22T13:01:26.607Z,10.90
2023-02-22T13:05:39.596Z,10.80
2023-02-22T13:10:03.160Z,10.60
2023-02-22T13:14:31.898Z,10.40
2023-02-22T13:18:49.462Z,10.20
2023-02-22T13:23:04.805Z,10.50
2023-02-22T13:27:19.916Z,11.00
2023-02-22T13:31:49.959Z,11.60
2023-02-22T13:36:21.894Z,12.10
2023-02-22T13:41:04.225Z,12.20
2023-02-22T13:45:53.060Z,11.90
2023-02-22T13:50:25.925Z,11.60
2023-02-22T13:54:41.709Z,11.40
2023-02-22T13:58:53.678Z,11.20
2023-02-22T14:03:08.674Z,11.20
2023-02-22T14:07:59.912Z,11.10
2023-02-22T14:12:11.207Z,11.00
2023-02-22T14:16:23.939Z,11.30
2023-02-22T14:20:37.005Z,11.10
2023-02-22T14:24:49.274Z,10.80
2023-02-22T14:29:03.166Z,10.50
2023-02-22T14:33:49.289Z,10.50
2023-02-22T14:38:02.277Z,10.70
2023-02-22T14:42:18.192Z,10.50
2023-02-22T14:46:31.129Z,10.20
2023-02-22T14:50:49.181Z,10.30
2023-02-22T14:55:05.434Z,10.40
2023-02-22T14:59:19.113Z,10.70
2023-02-22T15:03:37.711Z,10.80
2023-02-22T15:07:54.080Z,10.50
2023-02-22T15:12:18.696Z,10.30
2023-02-22T15:16:30.532Z,10.40
2023-02-22T15:20:42.307Z,10.70
2023-02-22T15:25:00.835Z,10.80
2023-02-22T15:29:11.896Z,10.50
2023-02-22T15:33:24.894Z,10.20
2023-02-22T15:37:35.816Z,10.30
2023-02-22T15:41:45.152Z,10.50
2023-02-22T15:45:54.750Z,10.90
2023-02-22T15:50:24.034Z,10.80
2023-02-22T15:54:43.953Z,10.20
2023-02-22T15:58:53.616Z,10.10
2023-02-22T16:03:03.036Z,10.10
2023-02-22T16:07:18.375Z,10.00
2023-02-22T16:11:34.537Z,9.90
2023-02-22T16:15:43.722Z,9.80
2023-02-22T16:19:53.532Z,9.80
2023-02-22T16:24:15.044Z,9.70
2023-02-22T16:28:34.351Z,9.20
2023-02-22T16:32:43.770Z,9.00
2023-02-22T16:36:53.313Z,8.90
2023-02-22T16:41:02.560Z,8.80
2023-02-22T16:45:18.037Z,8.70
2023-02-22T16:49:27.331Z,8.60
2023-02-22T16:53:36.572Z,8.50
2023-02-22T16:57:46.212Z,8.50
2023-02-22T17:01:59.091Z,8.50
2023-02-22T17:06:10.768Z,8.40
2023-02-22T17:10:20.394Z,8.30
2023-02-22T17:14:33.556Z,8.30
2023-02-22T17:18:46.231Z,8.20
2023-02-22T17:22:55.227Z,8.20
2023-02-22T17:27:04.629Z,8.10
2023-02-22T17:31:22.505Z,8.10
2023-02-22T17:35:36.760Z,8.00
2023-02-22T17:39:46.410Z,8.00
2023-02-22T17:43:58.308Z,7.80
2023-02-22T17:48:07.832Z,7.70
2023-02-22T17:52:19.037Z,7.70
2023-02-22T17:56:29.530Z,7.70
2023-02-22T18:00:41.205Z,7.60
2023-02-22T18:04:52.240Z,7.50
2023-02-22T18:09:11.031Z,7.50
2023-02-22T18:13:23.120Z,7.40
2023-02-22T18:17:32.633Z,7.30
2023-02-22T18:21:42.869Z,7.20
2023-02-22T18:26:09.783Z,7.10
2023-02-22T18:30:21.499Z,7.00
2023-02-22T18:34:33.472Z,7.00
2023-02-22T18:38:46.562Z,7.00
2023-02-22T18:42:58.953Z,6.90
2023-02-22T18:47:08.511Z,6.80
2023-02-22T18:51:19.521Z,6.80
2023-02-22T18:55:29.108Z,6.70
2023-02-22T18:59:39.696Z,6.70
2023-02-22T19:03:49.366Z,6.60
2023-02-22T19:07:58.415Z,6.50
2023-02-22T19:12:08.424Z,6.40
2023-02-22T19:16:21.399Z,6.20
2023-02-22T19:20:33.561Z,6.20
2023-02-22T19:24:43.219Z,6.10
2023-02-22T19:28:53.995Z,6.00
2023-02-22T19:33:05.196Z,5.90
2023-02-22T19:37:15.748Z,5.90
2023-02-22T19:41:25.713Z,5.90
2023-02-22T19:45:34.791Z,5.70
2023-02-22T19:49:45.374Z,5.60
2023-02-22T19:53:55.436Z,5.50
2023-02-22T19:58:05.009Z,5.50
2023-02-22T20:02:15.293Z,5.50
2023-02-22T20:06:28.548Z,5.40
2023-02-22T20:10:38.272Z,5.50
2023-02-22T20:14:48.159Z,5.50
2023-02-22T20:18:57.988Z,5.50
2023-02-22T20:23:09.755Z,5.50
2023-02-22T20:27:20.581Z,5.50
2023-02-22T20:31:30.871Z,5.30
2023-02-22T20:35:40.130Z,5.20
2023-02-22T20:39:52.529Z,5.10
2023-02-22T20:44:03.687Z,4.90
2023-02-22T20:48:12.900Z,4.80
2023-02-22T20:52:22.224Z,4.80
2023-02-22T20:56:34.669Z,4.90
2023-02-22T21:00:43.718Z,4.80
2023-02-22T21:04:53.035Z,4.80
2023-02-22T21:09:03.128Z,4.70
2023-02-22T21:13:14.395Z,4.70
2023-02-22T21:17:29.076Z,4.60
2023-02-22T21:21:38.310Z,4.60
2023-02-22T21:25:53.567Z,4.60
2023-02-22T21:30:05.575Z,4.50
2023-02-22T21:34:17.839Z,4.40
2023-02-22T21:38:27.492Z,4.40
2023-02-22T21:42:38.455Z,4.30
2023-02-22T21:46:50.372Z,4.30
2023-02-22T21:51:01.615Z,4.20
2023-02-22T21:55:12.138Z,4.10
2023-02-22T21:59:24.037Z,4.10
2023-02-22T22:03:36.837Z,4.20
2023-02-22T22:07:46.434Z,4.10
2023-02-22T22:11:58.935Z,4.00
2023-02-22T22:16:10.370Z,3.90
2023-02-22T22:20:22.239Z,4.00
2023-02-22T22:24:32.746Z,4.00
2023-02-22T22:28:43.684Z,4.10
2023-02-22T22:32:52.929Z,4.00
2023-02-22T22:37:04.112Z,4.00
2023-02-22T22:41:14.390Z,4.00
2023-02-22T22:45:23.869Z,4.00
2023-02-22T22:49:34.045Z,4.00
2023-02-22T22:53:46.025Z,4.00
2023-02-22T22:57:55.263Z,4.00
2023-02-22T23:02:11.704Z,3.90
2023-02-22T23:06:25.253Z,3.80
2023-02-22T23:10:39.634Z,3.70
2023-02-22T23:14:51.640Z,3.70
2023-02-22T23:19:01.487Z,3.80
2023-02-22T23:23:15.043Z,3.80
2023-02-22T23:27:26.287Z,3.80
2023-02-22T23:31:39.967Z,3.80
2023-02-22T23:35:50.291Z,3.80
2023-02-22T23:40:00.489Z,3.70
2023-02-22T23:44:17.883Z,3.80
2023-02-22T23:48:30.355Z,3.80
2023-02-22T23:52:39.684Z,3.80
2023-02-22T23:56:57.024Z,3.70
